sensor_id;sensor_type;location;lat;lon;timestamp;pressure;altitude;pressure_sealevel;temperature;humidity
67931;BME280;63902;52.000;5.954;2023-03-22T06:00:12;100256.25;;;8.23;100.00
67931;BME280;63902;52.000;5.954;2023-03-22T06:01:12;100232.25;;;8.07;100.00
67931;BME280;63902;52.000;5.954;2023-03-22T06:02:13;100248.66;;;8.15;100.00
67931;BME280;63902;52.000;5.954;2023-03-22T06:03:13;100251.19;;;8.18;100.00
67931;BME280;63902;52.000;5.954;2023-03-22T06:04:14;100253.81;;;8.18;100.00
67931;BME280;63902;52.000;5.954;2023-03-22T06:05:15;100256.50;;;8.17;100.00
67931;BME280;63902;52.000;5.954;2023-03-22T06:06:16;100248.75;;;8.12;100.00
67931;BME280;63902;52.000;5.954;2023-03-22T06:07:16;100260.09;;;8.16;100.00
67931;BME280;63902;52.000;5.954;2023-03-22T06:08:17;100259.97;;;8.19;100.00
67931;BME280;63902;52.000;5.954;2023-03-22T06:09:17;100246.78;;;8.17;100.00
67931;BME280;63902;52.000;5.954;2023-03-22T06:10:18;100250.25;;;8.19;100.00
67931;BME280;63902;52.000;5.954;2023-03-22T06:11:19;100255.34;;;8.24;100.00
67931;BME280;63902;52.000;5.954;2023-03-22T06:12:19;100243.47;;;8.12;100.00
67931;BME280;63902;52.000;5.954;2023-03-22T06:32:04;100243.00;;;8.24;100.00
67931;BME280;63902;52.000;5.954;2023-03-22T07:21:04;100252.16;;;9.01;99.86
67931;BME280;63902;52.000;5.954;2023-03-22T07:22:05;100251.16;;;9.03;99.70
67931;BME280;63902;52.000;5.954;2023-03-22T07:23:06;100244.22;;;9.01;99.55
67931;BME280;63902;52.000;5.954;2023-03-22T07:24:07;100257.25;;;9.05;99.53
67931;BME280;63902;52.000;5.954;2023-03-22T07:25:08;100231.31;;;8.93;99.48
67931;BME280;63902;52.000;5.954;2023-03-22T07:26:09;100252.63;;;9.10;99.56
67931;BME280;63902;52.000;5.954;2023-03-22T07:27:09;100249.88;;;9.12;99.27
67931;BME280;63902;52.000;5.954;2023-03-22T07:28:10;100251.69;;;9.11;99.20
67931;BME280;63902;52.000;5.954;2023-03-22T07:29:11;100251.69;;;9.11;99.49
67931;BME280;63902;52.000;5.954;2023-03-22T07:30:12;100232.44;;;9.08;99.25
67931;BME280;63902;52.000;5.954;2023-03-22T07:31:13;100244.31;;;9.18;99.37
67931;BME280;63902;52.000;5.954;2023-03-22T07:32:14;100237.47;;;9.14;99.34
67931;BME280;63902;52.000;5.954;2023-03-22T07:33:14;100216.78;;;9.03;99.21
67931;BME280;63902;52.000;5.954;2023-03-22T07:34:15;100220.97;;;9.07;99.20
67931;BME280;63902;52.000;5.954;2023-03-22T07:35:15;100245.84;;;9.24;99.09
67931;BME280;63902;52.000;5.954;2023-03-22T07:36:17;100251.13;;;9.24;99.28
67931;BME280;63902;52.000;5.954;2023-03-22T07:37:18;100243.19;;;9.24;99.26
67931;BME280;63902;52.000;5.954;2023-03-22T07:38:18;100241.47;;;9.23;99.24
67931;BME280;63902;52.000;5.954;2023-03-22T07:39:19;100248.47;;;9.24;99.57
67931;BME280;63902;52.000;5.954;2023-03-22T07:40:19;100242.41;;;9.22;99.21
67931;BME280;63902;52.000;5.954;2023-03-22T07:41:20;100253.63;;;9.27;98.76
67931;BME280;63902;52.000;5.954;2023-03-22T07:42:20;100243.13;;;9.25;98.63
67931;BME280;63902;52.000;5.954;2023-03-22T07:43:22;100244.78;;;9.28;98.89
67931;BME280;63902;52.000;5.954;2023-03-22T07:44:22;100253.56;;;9.28;98.83
67931;BME280;63902;52.000;5.954;2023-03-22T07:45:23;100246.56;;;9.27;98.95
67931;BME280;63902;52.000;5.954;2023-03-22T07:46:24;100248.28;;;9.28;98.93
67931;BME280;63902;52.000;5.954;2023-03-22T07:47:24;100236.97;;;9.25;98.91
67931;BME280;63902;52.000;5.954;2023-03-22T07:48:25;100238.03;;;9.21;98.88
67931;BME280;63902;52.000;5.954;2023-03-22T07:49:26;100250.00;;;9.29;98.66
67931;BME280;63902;52.000;5.954;2023-03-22T07:50:26;100244.69;;;9.29;98.58
67931;BME280;63902;52.000;5.954;2023-03-22T07:51:28;100241.06;;;9.32;98.64
67931;BME280;63902;52.000;5.954;2023-03-22T07:52:29;100243.84;;;9.29;98.33
67931;BME280;63902;52.000;5.954;2023-03-22T07:53:29;100244.56;;;9.32;98.52
67931;BME280;63902;52.000;5.954;2023-03-22T07:54:30;100250.84;;;9.30;98.82
67931;BME280;63902;52.000;5.954;2023-03-22T07:55:30;100246.34;;;9.32;98.96
67931;BME280;63902;52.000;5.954;2023-03-22T07:56:31;100244.69;;;9.29;98.79
67931;BME280;63902;52.000;5.954;2023-03-22T07:57:31;100246.44;;;9.30;98.84
67931;BME280;63902;52.000;5.954;2023-03-22T07:58:32;100256.88;;;9.33;98.95
67931;BME280;63902;52.000;5.954;2023-03-22T07:59:32;100254.38;;;9.30;99.17
67931;BME280;63902;52.000;5.954;2023-03-22T08:00:33;100233.53;;;9.23;99.01
67931;BME280;63902;52.000;5.954;2023-03-22T08:01:33;100262.84;;;9.38;99.00
67931;BME280;63902;52.000;5.954;2023-03-22T08:02:34;100260.09;;;9.40;98.91
67931;BME280;63902;52.000;5.954;2023-03-22T08:03:35;100260.91;;;9.42;98.66
67931;BME280;63902;52.000;5.954;2023-03-22T08:04:35;100251.34;;;9.38;98.60
67931;BME280;63902;52.000;5.954;2023-03-22T08:05:39;100259.81;;;9.46;98.59
67931;BME280;63902;52.000;5.954;2023-03-22T08:06:41;100254.53;;;9.46;98.66
67931;BME280;63902;52.000;5.954;2023-03-22T08:07:42;100266.75;;;9.49;98.44
67931;BME280;63902;52.000;5.954;2023-03-22T08:08:42;100241.22;;;9.48;98.40
67931;BME280;63902;52.000;5.954;2023-03-22T08:09:43;100249.88;;;9.51;98.46
67931;BME280;63902;52.000;5.954;2023-03-22T08:10:47;100249.81;;;9.53;98.64
67931;BME280;63902;52.000;5.954;2023-03-22T08:11:48;100239.53;;;9.47;98.43
67931;BME280;63902;52.000;5.954;2023-03-22T08:12:48;100249.72;;;9.54;98.13
67931;BME280;63902;52.000;5.954;2023-03-22T08:13:49;100249.69;;;9.56;98.21
67931;BME280;63902;52.000;5.954;2023-03-22T08:14:50;100249.59;;;9.57;98.31
67931;BME280;63902;52.000;5.954;2023-03-22T08:15:50;100239.28;;;9.51;97.73
67931;BME280;63902;52.000;5.954;2023-03-22T08:16:51;100247.75;;;9.59;98.15
67931;BME280;63902;52.000;5.954;2023-03-22T08:17:51;100249.44;;;9.60;97.09
67931;BME280;63902;52.000;5.954;2023-03-22T08:18:52;100245.03;;;9.61;97.36
67931;BME280;63902;52.000;5.954;2023-03-22T08:19:53;100247.59;;;9.62;97.57
67931;BME280;63902;52.000;5.954;2023-03-22T08:20:54;100243.16;;;9.63;97.51
67931;BME280;63902;52.000;5.954;2023-03-22T08:21:56;100237.84;;;9.63;97.53
67931;BME280;63902;52.000;5.954;2023-03-22T08:22:57;100213.25;;;9.42;97.44
67931;BME280;63902;52.000;5.954;2023-03-22T08:23:57;100213.31;;;9.40;97.27
67931;BME280;63902;52.000;5.954;2023-03-22T08:24:58;100243.16;;;9.63;96.69
67931;BME280;63902;52.000;5.954;2023-03-22T08:25:58;100215.41;;;9.53;96.74
67931;BME280;63902;52.000;5.954;2023-03-22T08:26:59;100236.00;;;9.65;97.01
67931;BME280;63902;52.000;5.954;2023-03-22T08:27:59;100246.25;;;9.73;96.78
67931;BME280;63902;52.000;5.954;2023-03-22T08:29:00;100247.03;;;9.75;96.96
67931;BME280;63902;52.000;5.954;2023-03-22T08:30:01;100243.59;;;9.73;97.08
67931;BME280;63902;52.000;5.954;2023-03-22T08:31:09;100250.47;;;9.77;97.36
67931;BME280;63902;52.000;5.954;2023-03-22T08:32:10;100246.41;;;9.70;96.85
67931;BME280;63902;52.000;5.954;2023-03-22T08:33:10;100261.06;;;9.77;96.89
67931;BME280;63902;52.000;5.954;2023-03-22T08:34:11;100256.59;;;9.77;96.59
67931;BME280;63902;52.000;5.954;2023-03-22T08:35:12;100252.19;;;9.78;96.81
67931;BME280;63902;52.000;5.954;2023-03-22T08:36:15;100259.19;;;9.79;96.81
67931;BME280;63902;52.000;5.954;2023-03-22T08:37:17;100260.91;;;9.80;97.03
67931;BME280;63902;52.000;5.954;2023-03-22T08:38:18;100255.53;;;9.81;96.90
67931;BME280;63902;52.000;5.954;2023-03-22T08:39:18;100256.50;;;9.80;96.91
67931;BME280;63902;52.000;5.954;2023-03-22T08:40:19;100243.31;;;9.79;96.88
67931;BME280;63902;52.000;5.954;2023-03-22T08:41:19;100249.31;;;9.82;96.96
67931;BME280;63902;52.000;5.954;2023-03-22T08:42:20;100250.09;;;9.84;97.00
67931;BME280;63902;52.000;5.954;2023-03-22T08:43:20;100258.75;;;9.88;96.28
67931;BME280;63902;52.000;5.954;2023-03-22T08:44:21;100249.00;;;9.89;95.76
67931;BME280;63902;52.000;5.954;2023-03-22T08:45:21;100250.75;;;9.90;95.96
67931;BME280;63902;52.000;5.954;2023-03-22T08:46:22;100251.47;;;9.93;96.38
67931;BME280;63902;52.000;5.954;2023-03-22T08:47:22;100253.91;;;9.98;96.31
67931;BME280;63902;52.000;5.954;2023-03-22T08:48:23;100252.91;;;10.00;95.90
67931;BME280;63902;52.000;5.954;2023-03-22T08:49:24;100217.53;;;9.82;95.92
67931;BME280;63902;52.000;5.954;2023-03-22T08:50:25;100240.72;;;9.96;94.33
67931;BME280;63902;52.000;5.954;2023-03-22T08:51:25;100244.00;;;10.01;94.15
67931;BME280;63902;52.000;5.954;2023-03-22T08:52:28;100240.34;;;10.04;93.95
67931;BME280;63902;52.000;5.954;2023-03-22T08:53:29;100245.72;;;10.02;94.51
67931;BME280;63902;52.000;5.954;2023-03-22T08:54:30;100234.03;;;10.06;94.68
67931;BME280;63902;52.000;5.954;2023-03-22T08:55:30;100240.84;;;10.12;94.50
67931;BME280;63902;52.000;5.954;2023-03-22T08:56:31;100240.63;;;10.17;94.93
67931;BME280;63902;52.000;5.954;2023-03-22T08:58:42;100221.28;;;10.15;92.93
67931;BME280;63902;52.000;5.954;2023-03-22T08:59:42;100240.75;;;10.33;93.60
67931;BME280;63902;52.000;5.954;2023-03-22T09:00:43;100229.06;;;10.37;93.91
67931;BME280;63902;52.000;5.954;2023-03-22T09:01:43;100227.03;;;10.42;93.47
67931;BME280;63902;52.000;5.954;2023-03-22T09:02:44;100234.75;;;10.46;93.25
67931;BME280;63902;52.000;5.954;2023-03-22T09:03:45;100238.19;;;10.48;91.05
67931;BME280;63902;52.000;5.954;2023-03-22T09:04:45;100232.59;;;10.55;90.36
67931;BME280;63902;52.000;5.954;2023-03-22T09:05:46;100235.03;;;10.59;90.45
67931;BME280;63902;52.000;5.954;2023-03-22T09:06:46;100233.06;;;10.63;90.66
67931;BME280;63902;52.000;5.954;2023-03-22T09:07:52;100245.38;;;10.64;91.25
67931;BME280;63902;52.000;5.954;2023-03-22T09:08:53;100234.75;;;10.64;91.10
67931;BME280;63902;52.000;5.954;2023-03-22T09:09:53;100245.38;;;10.64;89.83
67931;BME280;63902;52.000;5.954;2023-03-22T09:10:54;100225.09;;;10.63;91.07
67931;BME280;63902;52.000;5.954;2023-03-22T09:11:54;100230.34;;;10.64;91.41
67931;BME280;63902;52.000;5.954;2023-03-22T09:12:55;100235.41;;;10.69;90.42
67931;BME280;63902;52.000;5.954;2023-03-22T09:13:55;100232.28;;;10.61;89.88
67931;BME280;63902;52.000;5.954;2023-03-22T09:14:56;100238.84;;;10.71;91.06
67931;BME280;63902;52.000;5.954;2023-03-22T09:15:56;100219.47;;;10.69;90.54
67931;BME280;63902;52.000;5.954;2023-03-22T09:16:57;100221.22;;;10.70;90.40
67931;BME280;63902;52.000;5.954;2023-03-22T09:17:57;100220.72;;;10.79;91.30
67931;BME280;63902;52.000;5.954;2023-03-22T09:18:58;100224.31;;;10.78;89.83
67931;BME280;63902;52.000;5.954;2023-03-22T09:19:58;100213.09;;;10.73;89.59
67931;BME280;63902;52.000;5.954;2023-03-22T09:20:59;100226.56;;;10.86;90.29
67931;BME280;63902;52.000;5.954;2023-03-22T09:21:59;100223.00;;;10.87;89.32
67931;BME280;63902;52.000;5.954;2023-03-22T09:23:01;100219.56;;;10.85;89.42
67931;BME280;63902;52.000;5.954;2023-03-22T09:24:02;100222.75;;;10.91;90.07
67931;BME280;63902;52.000;5.954;2023-03-22T09:25:03;100231.25;;;10.98;90.79
67931;BME280;63902;52.000;5.954;2023-03-22T09:26:05;100221.41;;;11.00;90.30
67931;BME280;63902;52.000;5.954;2023-03-22T09:27:06;100230.22;;;11.01;90.30
67931;BME280;63902;52.000;5.954;2023-03-22T09:28:06;100224.16;;;10.98;90.14
67931;BME280;63902;52.000;5.954;2023-03-22T09:29:07;100230.16;;;11.02;89.58
67931;BME280;63902;52.000;5.954;2023-03-22T09:30:08;100224.91;;;11.01;88.36
67931;BME280;63902;52.000;5.954;2023-03-22T09:31:09;100220.31;;;11.04;88.36
67931;BME280;63902;52.000;5.954;2023-03-22T09:32:10;100215.78;;;11.06;88.95
67931;BME280;63902;52.000;5.954;2023-03-22T09:33:10;100214.91;;;11.06;89.46
67931;BME280;63902;52.000;5.954;2023-03-22T09:34:11;100213.22;;;11.05;88.68
67931;BME280;63902;52.000;5.954;2023-03-22T09:35:11;100215.19;;;11.01;87.96
67931;BME280;63902;52.000;5.954;2023-03-22T09:36:12;100220.31;;;11.04;88.76
67931;BME280;63902;52.000;5.954;2023-03-22T09:37:13;100205.63;;;10.97;89.18
67931;BME280;63902;52.000;5.954;2023-03-22T09:38:15;100220.47;;;11.01;89.16
67931;BME280;63902;52.000;5.954;2023-03-22T09:39:15;100178.13;;;10.82;89.59
67931;BME280;63902;52.000;5.954;2023-03-22T09:40:16;100211.91;;;10.96;89.87
67931;BME280;63902;52.000;5.954;2023-03-22T09:41:20;100228.34;;;11.03;89.59
67931;BME280;63902;52.000;5.954;2023-03-22T09:42:30;100224.91;;;11.01;89.21
67931;BME280;63902;52.000;5.954;2023-03-22T09:43:34;100221.50;;;10.98;89.60
67931;BME280;63902;52.000;5.954;2023-03-22T09:44:39;100215.63;;;10.92;86.41
67931;BME280;63902;52.000;5.954;2023-03-22T09:45:42;100224.72;;;10.88;86.99
67931;BME280;63902;52.000;5.954;2023-03-22T09:46:48;100230.06;;;10.86;86.26
67931;BME280;63902;52.000;5.954;2023-03-22T09:47:51;100217.69;;;10.87;88.48
67931;BME280;63902;52.000;5.954;2023-03-22T09:48:52;100227.41;;;10.86;87.70
67931;BME280;63902;52.000;5.954;2023-03-22T09:50:02;100220.56;;;10.82;86.53
67931;BME280;63902;52.000;5.954;2023-03-22T09:51:05;100231.34;;;10.79;86.29
67931;BME280;63902;52.000;5.954;2023-03-22T09:52:12;100219.09;;;10.77;87.45
67931;BME280;63902;52.000;5.954;2023-03-22T09:53:15;100227.84;;;10.79;88.77
67931;BME280;63902;52.000;5.954;2023-03-22T09:54:18;100223.44;;;10.78;88.58
67931;BME280;63902;52.000;5.954;2023-03-22T09:55:21;100233.16;;;10.79;88.97
67931;BME280;63902;52.000;5.954;2023-03-22T09:56:25;100219.16;;;10.75;88.07
67931;BME280;63902;52.000;5.954;2023-03-22T09:57:31;100219.25;;;10.73;88.14
67931;BME280;63902;52.000;5.954;2023-03-22T09:58:35;100218.41;;;10.73;88.63
67931;BME280;63902;52.000;5.954;2023-03-22T09:59:43;100214.00;;;10.72;87.83
67931;BME280;63902;52.000;5.954;2023-03-22T10:00:49;100220.44;;;10.68;87.43
67931;BME280;63902;52.000;5.954;2023-03-22T10:01:54;100201.22;;;10.63;85.10
67931;BME280;63902;52.000;5.954;2023-03-22T10:03:02;100219.63;;;10.66;87.14
67931;BME280;63902;52.000;5.954;2023-03-22T10:04:22;100223.09;;;10.68;86.37
67931;BME280;63902;52.000;5.954;2023-03-22T10:05:30;100230.25;;;10.66;87.27
67931;BME280;63902;52.000;5.954;2023-03-22T10:06:35;100224.88;;;10.67;87.82
67931;BME280;63902;52.000;5.954;2023-03-22T10:07:41;100231.88;;;10.68;88.41
67931;BME280;63902;52.000;5.954;2023-03-22T10:08:53;100235.41;;;10.69;87.77
67931;BME280;63902;52.000;5.954;2023-03-22T10:10:03;100217.78;;;10.68;88.29
67931;BME280;63902;52.000;5.954;2023-03-22T10:11:12;100217.00;;;10.66;87.21
67931;BME280;63902;52.000;5.954;2023-03-22T10:12:18;100218.69;;;10.67;88.04
67931;BME280;63902;52.000;5.954;2023-03-22T10:13:23;100222.97;;;10.69;86.70
67931;BME280;63902;52.000;5.954;2023-03-22T10:14:29;100211.91;;;10.61;86.17
67931;BME280;63902;52.000;5.954;2023-03-22T10:15:33;100231.81;;;10.70;86.69
67931;BME280;63902;52.000;5.954;2023-03-22T10:16:35;100215.91;;;10.70;87.17
67931;BME280;63902;52.000;5.954;2023-03-22T10:17:39;100226.53;;;10.70;86.14
67931;BME280;63902;52.000;5.954;2023-03-22T10:18:44;100215.91;;;10.70;86.65
67931;BME280;63902;52.000;5.954;2023-03-22T10:19:51;100231.81;;;10.70;86.53
67931;BME280;63902;52.000;5.954;2023-03-22T10:20:58;100226.59;;;10.68;84.88
67931;BME280;63902;52.000;5.954;2023-03-22T10:22:01;100223.09;;;10.68;85.86
67931;BME280;63902;52.000;5.954;2023-03-22T10:23:08;100224.00;;;10.67;87.01
67931;BME280;63902;52.000;5.954;2023-03-22T10:24:15;100228.44;;;10.66;87.26
67931;BME280;63902;52.000;5.954;2023-03-22T10:25:21;100224.94;;;10.66;87.95
67931;BME280;63902;52.000;5.954;2023-03-22T10:26:25;100221.50;;;10.64;86.99
67931;BME280;63902;52.000;5.954;2023-03-22T10:27:28;100201.09;;;10.48;86.54
67931;BME280;63902;52.000;5.954;2023-03-22T10:28:36;100229.00;;;10.56;88.43
67931;BME280;63902;52.000;5.954;2023-03-22T10:29:38;100221.97;;;10.55;88.30
67931;BME280;63902;52.000;5.954;2023-03-22T10:30:40;100199.03;;;10.36;88.93
67931;BME280;63902;52.000;5.954;2023-03-22T10:31:42;100231.78;;;10.52;87.98
67931;BME280;63902;52.000;5.954;2023-03-22T10:32:47;100222.13;;;10.51;88.97
67931;BME280;63902;52.000;5.954;2023-03-22T10:33:54;100219.66;;;10.48;88.95
67931;BME280;63902;52.000;5.954;2023-03-22T10:34:57;100222.34;;;10.47;88.78
67931;BME280;63902;52.000;5.954;2023-03-22T10:35:58;100220.81;;;10.43;88.10
67931;BME280;63902;52.000;5.954;2023-03-22T10:37:02;100226.13;;;10.43;88.85
67931;BME280;63902;52.000;5.954;2023-03-22T10:38:06;100221.72;;;10.42;89.09
67931;BME280;63902;52.000;5.954;2023-03-22T10:39:24;100223.53;;;10.41;89.76
67931;BME280;63902;52.000;5.954;2023-03-22T10:40:28;100222.81;;;10.38;88.99
67931;BME280;63902;52.000;5.954;2023-03-22T10:41:31;100220.25;;;10.36;89.68
67931;BME280;63902;52.000;5.954;2023-03-22T10:42:35;100230.00;;;10.36;90.00
67931;BME280;63902;52.000;5.954;2023-03-22T10:43:38;100225.63;;;10.35;90.40
67931;BME280;63902;52.000;5.954;2023-03-22T10:44:46;100209.03;;;10.31;90.36
67931;BME280;63902;52.000;5.954;2023-03-22T10:45:50;100230.41;;;10.28;90.18
67931;BME280;63902;52.000;5.954;2023-03-22T10:46:53;100223.19;;;10.30;89.66
67931;BME280;63902;52.000;5.954;2023-03-22T10:47:57;100224.16;;;10.29;90.27
67931;BME280;63902;52.000;5.954;2023-03-22T10:49:00;100230.41;;;10.28;90.49
67931;BME280;63902;52.000;5.954;2023-03-22T10:50:04;100223.63;;;10.21;91.16
67931;BME280;63902;52.000;5.954;2023-03-22T10:51:06;100226.28;;;10.21;91.25
67931;BME280;63902;52.000;5.954;2023-03-22T10:52:19;100225.44;;;10.20;91.46
67931;BME280;63902;52.000;5.954;2023-03-22T10:53:28;100236.94;;;10.19;91.40
67931;BME280;63902;52.000;5.954;2023-03-22T10:54:32;100246.69;;;10.19;91.54
67931;BME280;63902;52.000;5.954;2023-03-22T10:55:38;100233.53;;;10.17;92.16
67931;BME280;63902;52.000;5.954;2023-03-22T10:56:38;100235.38;;;10.15;92.13
67931;BME280;63902;52.000;5.954;2023-03-22T10:57:40;100237.19;;;10.15;92.15
67931;BME280;63902;52.000;5.954;2023-03-22T10:58:41;100234.53;;;10.15;92.58
67931;BME280;63902;52.000;5.954;2023-03-22T10:59:47;100248.84;;;10.11;92.88
67931;BME280;63902;52.000;5.954;2023-03-22T11:00:48;100247.00;;;10.13;92.97
67931;BME280;63902;52.000;5.954;2023-03-22T11:01:50;100240.00;;;10.12;93.24
67931;BME280;63902;52.000;5.954;2023-03-22T11:02:52;100232.25;;;10.07;93.46
67931;BME280;63902;52.000;5.954;2023-03-22T11:03:56;100238.41;;;10.07;93.64
67931;BME280;63902;52.000;5.954;2023-03-22T11:04:59;100237.34;;;10.12;93.65
67931;BME280;63902;52.000;5.954;2023-03-22T11:06:02;100248.78;;;10.12;94.47
67931;BME280;63902;52.000;5.954;2023-03-22T11:07:05;100247.09;;;10.11;94.53
67931;BME280;63902;52.000;5.954;2023-03-22T11:08:05;100221.09;;;10.00;95.09
67931;BME280;63902;52.000;5.954;2023-03-22T11:09:11;100228.81;;;10.05;94.84
67931;BME280;63902;52.000;5.954;2023-03-22T11:37:08;100232.91;;;9.93;97.35
67931;BME280;63902;52.000;5.954;2023-03-22T12:51:53;100209.53;;;10.20;96.61
67931;BME280;63902;52.000;5.954;2023-03-22T12:52:55;100216.47;;;10.23;96.36
67931;BME280;63902;52.000;5.954;2023-03-22T12:53:58;100184.50;;;10.08;96.23
67931;BME280;63902;52.000;5.954;2023-03-22T12:55:00;100210.22;;;10.24;96.04
67931;BME280;63902;52.000;5.954;2023-03-22T12:56:02;100208.44;;;10.24;96.30
67931;BME280;63902;52.000;5.954;2023-03-22T12:57:03;100212.81;;;10.25;96.33
67931;BME280;63902;52.000;5.954;2023-03-22T12:59:16;100212.88;;;10.24;96.17
67931;BME280;63902;52.000;5.954;2023-03-22T13:01:33;100213.81;;;10.23;96.33
67931;BME280;63902;52.000;5.954;2023-03-22T13:02:35;100214.53;;;10.26;96.15
67931;BME280;63902;52.000;5.954;2023-03-22T13:03:38;100208.44;;;10.24;96.02
67931;BME280;63902;52.000;5.954;2023-03-22T13:04:50;100218.97;;;10.26;96.14
67931;BME280;63902;52.000;5.954;2023-03-22T13:05:59;100207.56;;;10.24;96.41
67931;BME280;63902;52.000;5.954;2023-03-22T13:07:12;100217.13;;;10.28;96.24
67931;BME280;63902;52.000;5.954;2023-03-22T16:53:35;100120.00;;;9.54;100.00
67931;BME280;63902;52.000;5.954;2023-03-22T17:22:41;100091.50;;;9.42;100.00
67931;BME280;63902;52.000;5.954;2023-03-22T17:23:42;100120.81;;;9.56;100.00
67931;BME280;63902;52.000;5.954;2023-03-22T17:32:55;100092.84;;;9.51;100.00
67931;BME280;63902;52.000;5.954;2023-03-22T17:33:55;100095.34;;;9.54;100.00
67931;BME280;63902;52.000;5.954;2023-03-22T17:38:26;100098.69;;;9.57;100.00
67931;BME280;63902;52.000;5.954;2023-03-22T17:39:27;100080.59;;;9.48;100.00
67931;BME280;63902;52.000;5.954;2023-03-22T17:40:28;100103.06;;;9.58;100.00
67931;BME280;63902;52.000;5.954;2023-03-22T17:41:29;100104.75;;;9.59;100.00
67931;BME280;63902;52.000;5.954;2023-03-22T17:42:29;100103.06;;;9.58;100.00
67931;BME280;63902;52.000;5.954;2023-03-22T17:43:29;100104.13;;;9.54;100.00
67931;BME280;63902;52.000;5.954;2023-03-22T17:44:30;100114.41;;;9.60;100.00
67931;BME280;63902;52.000;5.954;2023-03-22T18:07:49;100093.69;;;9.51;100.00
67931;BME280;63902;52.000;5.954;2023-03-22T18:08:50;100125.78;;;9.62;100.00
67931;BME280;63902;52.000;5.954;2023-03-22T18:09:50;100130.09;;;9.65;100.00
67931;BME280;63902;52.000;5.954;2023-03-22T18:10:51;100124.88;;;9.63;100.00
67931;BME280;63902;52.000;5.954;2023-03-22T18:11:51;100140.63;;;9.67;100.00
67931;BME280;63902;52.000;5.954;2023-03-22T18:12:52;100120.50;;;9.62;100.00
67931;BME280;63902;52.000;5.954;2023-03-22T18:13:52;100133.59;;;9.66;100.00
67931;BME280;63902;52.000;5.954;2023-03-22T18:14:53;100140.53;;;9.68;100.00
67931;BME280;63902;52.000;5.954;2023-03-22T18:15:53;100107.78;;;9.52;100.00
67931;BME280;63902;52.000;5.954;2023-03-22T18:16:54;100090.50;;;9.45;100.00
67931;BME280;63902;52.000;5.954;2023-03-22T18:17:57;100141.38;;;9.69;100.00
67931;BME280;63902;52.000;5.954;2023-03-22T18:19:20;100130.94;;;9.66;100.00
67931;BME280;63902;52.000;5.954;2023-03-22T18:20:21;100136.19;;;9.67;100.00
67931;BME280;63902;52.000;5.954;2023-03-22T18:21:22;100134.38;;;9.68;100.00
67931;BME280;63902;52.000;5.954;2023-03-22T18:22:23;100119.81;;;9.59;100.00
67931;BME280;63902;52.000;5.954;2023-03-22T18:23:24;100124.88;;;9.63;100.00
67931;BME280;63902;52.000;5.954;2023-03-22T18:24:25;100128.28;;;9.66;100.00
67931;BME280;63902;52.000;5.954;2023-03-22T18:25:25;100131.78;;;9.66;100.00
67931;BME280;63902;52.000;5.954;2023-03-22T18:26:26;100137.97;;;9.67;100.00
67931;BME280;63902;52.000;5.954;2023-03-22T18:27:29;100124.88;;;9.63;100.00
67931;BME280;63902;52.000;5.954;2023-03-22T18:28:32;100131.78;;;9.66;100.00
67931;BME280;63902;52.000;5.954;2023-03-22T18:29:33;100129.38;;;9.61;100.00
67931;BME280;63902;52.000;5.954;2023-03-22T18:30:33;100132.75;;;9.65;100.00
67931;BME280;63902;52.000;5.954;2023-03-22T18:31:42;100131.88;;;9.64;100.00
67931;BME280;63902;52.000;5.954;2023-03-22T18:32:43;100119.88;;;9.57;100.00
67931;BME280;63902;52.000;5.954;2023-03-22T18:33:43;100126.66;;;9.63;100.00
67931;BME280;63902;52.000;5.954;2023-03-22T18:34:44;100109.22;;;9.59;100.00
67931;BME280;63902;52.000;5.954;2023-03-22T18:35:47;100128.44;;;9.62;100.00
67931;BME280;63902;52.000;5.954;2023-03-22T18:36:48;100122.28;;;9.62;100.00
67931;BME280;63902;52.000;5.954;2023-03-22T18:37:48;100106.47;;;9.60;100.00
67931;BME280;63902;52.000;5.954;2023-03-22T18:38:50;100114.34;;;9.62;100.00
67931;BME280;63902;52.000;5.954;2023-03-22T18:39:51;100112.56;;;9.62;100.00
67931;BME280;63902;52.000;5.954;2023-03-22T18:40:53;100103.22;;;9.55;100.00
67931;BME280;63902;52.000;5.954;2023-03-22T18:41:54;100099.63;;;9.56;100.00
67931;BME280;63902;52.000;5.954;2023-03-22T18:42:54;100097.78;;;9.58;100.00
67931;BME280;63902;52.000;5.954;2023-03-22T18:43:55;100082.72;;;9.59;100.00
67931;BME280;63902;52.000;5.954;2023-03-22T18:44:56;100094.03;;;9.62;100.00
67931;BME280;63902;52.000;5.954;2023-03-22T18:45:56;100093.22;;;9.60;100.00
67931;BME280;63902;52.000;5.954;2023-03-22T18:46:57;100083.25;;;9.48;100.00
67931;BME280;63902;52.000;5.954;2023-03-22T18:47:57;100101.19;;;9.60;100.00
67931;BME280;63902;52.000;5.954;2023-03-22T18:48:58;100069.47;;;9.41;100.00
67931;BME280;63902;52.000;5.954;2023-03-22T18:49:58;100088.88;;;9.59;100.00
67931;BME280;63902;52.000;5.954;2023-03-22T18:50:58;100095.88;;;9.60;100.00
67931;BME280;63902;52.000;5.954;2023-03-22T18:51:59;100093.22;;;9.60;100.00
67931;BME280;63902;52.000;5.954;2023-03-22T18:52:59;100071.13;;;9.44;100.00
67931;BME280;63902;52.000;5.954;2023-03-22T18:54:02;100105.63;;;9.60;100.00
67931;BME280;63902;52.000;5.954;2023-03-22T18:55:03;100101.19;;;9.60;100.00
67931;BME280;63902;52.000;5.954;2023-03-22T18:56:04;100088.25;;;9.54;100.00
67931;BME280;63902;52.000;5.954;2023-03-22T18:57:05;100084.75;;;9.54;100.00
67931;BME280;63902;52.000;5.954;2023-03-22T18:58:05;100099.47;;;9.59;100.00
67931;BME280;63902;52.000;5.954;2023-03-22T18:59:06;100088.25;;;9.54;100.00
67931;BME280;63902;52.000;5.954;2023-03-22T19:00:08;100082.72;;;9.59;100.00
67931;BME280;63902;52.000;5.954;2023-03-22T19:01:09;100100.41;;;9.58;100.00
67931;BME280;63902;52.000;5.954;2023-03-22T19:02:09;100084.69;;;9.55;100.00
67931;BME280;63902;52.000;5.954;2023-03-22T19:03:10;100084.69;;;9.55;100.00
67931;BME280;63902;52.000;5.954;2023-03-22T19:04:11;100089.03;;;9.56;100.00